Time;durP1;ratioP1;P1;durP2;ratioP2;P2;SDS_P1;SDS_P2;PMS_P1;PMS_P2;Temp;Humidity;BMP_temperature;BMP_pressure;BME280_temperature;BME280_humidity;BME280_pressure;Samples;Min_cycle;Max_cycle;Signal;HPM_P1;HPM_P2
2024/02/27 00:00:22;;;;;;;40.40;17.40;;;;;;;1.37;100.00;101816.20;105657;1259;62492;-75
2024/02/27 00:02:49;;;;;;;46.80;14.40;;;;;;;1.34;100.00;101812.59;105782;1257;72699;-75
2024/02/27 00:05:17;;;;;;;46.40;16.00;;;;;;;1.33;100.00;101813.96;105697;1257;60090;-75
2024/02/27 00:07:44;;;;;;;37.80;16.10;;;;;;;1.30;100.00;101814.31;105655;1260;59470;-76
2024/02/27 00:10:14;;;;;;;41.80;15.00;;;;;;;1.27;100.00;101818.97;105683;1258;72630;-74
2024/02/27 00:12:42;;;;;;;38.50;15.10;;;;;;;1.21;100.00;101821.22;105676;1254;62902;-74
2024/02/27 00:15:10;;;;;;;40.80;15.10;;;;;;;1.17;100.00;101823.30;105658;1259;71382;-74
2024/02/27 00:17:37;;;;;;;38.00;14.50;;;;;;;1.15;100.00;101825.19;105703;1260;59666;-74
2024/02/27 00:20:07;;;;;;;39.00;13.50;;;;;;;1.15;100.00;101826.05;106009;1254;59675;-74
2024/02/27 00:22:34;;;;;;;33.90;14.80;;;;;;;1.15;100.00;101828.12;105714;1254;72424;-74
2024/02/27 00:25:03;;;;;;;36.00;15.60;;;;;;;1.11;100.00;101825.20;105757;1257;62438;-74
2024/02/27 00:27:30;;;;;;;44.70;16.20;;;;;;;1.07;100.00;101823.47;105751;1260;72434;-73
2024/02/27 00:29:58;;;;;;;43.50;13.60;;;;;;;1.05;100.00;101820.39;105719;1254;60845;-75
2024/02/27 00:32:25;;;;;;;43.20;12.00;;;;;;;1.03;100.00;101821.25;105672;1254;59932;-73
2024/02/27 00:34:53;;;;;;;36.10;11.50;;;;;;;1.02;100.00;101821.08;105687;1254;72996;-74
2024/02/27 00:37:21;;;;;;;35.90;12.10;;;;;;;1.01;100.00;101816.95;105821;1254;62325;-72
2024/02/27 00:39:48;;;;;;;22.50;9.30;;;;;;;1.00;100.00;101819.02;105946;1254;72458;-70
2024/02/27 00:42:18;;;;;;;37.40;9.30;;;;;;;0.99;100.00;101818.33;105758;1255;59675;-72
2024/02/27 00:44:45;;;;;;;26.50;9.90;;;;;;;0.97;100.00;101817.48;105648;1253;60133;-73
2024/02/27 00:47:13;;;;;;;37.20;9.80;;;;;;;0.94;100.00;101825.05;105723;1253;73134;-73
2024/02/27 00:49:41;;;;;;;21.30;7.80;;;;;;;0.94;100.00;101826.26;105714;1258;62463;-72
2024/02/27 00:52:09;;;;;;;26.90;8.50;;;;;;;0.94;100.00;101831.41;105688;1254;71418;-73
2024/02/27 00:54:36;;;;;;;23.60;8.20;;;;;;;0.91;100.00;101832.97;105629;1254;59767;-73
2024/02/27 00:57:04;;;;;;;26.70;7.90;;;;;;;0.91;100.00;101834.16;105726;1258;59693;-74
2024/02/27 00:59:31;;;;;;;28.60;6.80;;;;;;;0.87;100.00;101839.49;105659;1254;73109;-72
2024/02/27 01:01:59;;;;;;;28.90;7.20;;;;;;;0.80;100.00;101839.50;105650;1257;63527;-72
2024/02/27 01:04:26;;;;;;;32.40;7.80;;;;;;;0.74;100.00;101841.74;105824;1253;71274;-74
2024/02/27 01:06:54;;;;;;;32.20;8.00;;;;;;;0.69;100.00;101839.67;105702;1254;59773;-73
2024/02/27 01:09:21;;;;;;;12.80;6.10;;;;;;;0.64;100.00;101837.61;105761;1254;60009;-75
2024/02/27 01:11:49;;;;;;;20.50;7.70;;;;;;;0.59;100.00;101840.54;105683;1254;73117;-72
2024/02/27 01:14:18;;;;;;;19.70;7.60;;;;;;;0.54;100.00;101841.89;105720;1253;64665;-75
2024/02/27 01:16:45;;;;;;;26.40;8.50;;;;;;;0.51;100.00;101844.82;105759;1257;72909;-75
2024/02/27 01:19:13;;;;;;;19.80;8.00;;;;;;;0.48;100.00;101840.86;105708;1257;60824;-73
2024/02/27 01:21:42;;;;;;;19.60;7.50;;;;;;;0.44;100.00;101845.84;105654;1257;59704;-73
2024/02/27 01:24:09;;;;;;;30.30;9.50;;;;;;;0.43;100.00;101843.61;105736;1257;73284;-75
2024/02/27 01:26:37;;;;;;;27.80;10.70;;;;;;;0.43;100.00;101843.09;105737;1254;62299;-75
2024/02/27 01:29:04;;;;;;;31.50;10.70;;;;;;;0.45;100.00;101843.61;105769;1257;71817;-73
2024/02/27 01:31:31;;;;;;;26.80;10.00;;;;;;;0.44;100.00;101842.92;105806;1254;62067;-74
2024/02/27 01:33:59;;;;;;;39.70;14.40;;;;;;;0.43;100.00;101847.56;105747;1260;60717;-73
2024/02/27 01:36:26;;;;;;;34.30;12.80;;;;;;;0.40;100.00;101845.66;105675;1258;71706;-74
2024/02/27 01:38:54;;;;;;;35.90;12.80;;;;;;;0.37;100.00;101844.81;105680;1254;63055;-75
2024/02/27 01:41:21;;;;;;;35.40;13.90;;;;;;;0.32;100.00;101841.00;105737;1251;73132;-74
2024/02/27 01:43:49;;;;;;;34.60;12.20;;;;;;;0.25;100.00;101841.16;105737;1251;61594;-72
2024/02/27 01:46:18;;;;;;;35.90;14.20;;;;;;;0.20;100.00;101839.77;105786;1255;59606;-73
2024/02/27 01:48:46;;;;;;;32.20;11.60;;;;;;;0.16;100.00;101844.07;105683;1254;73117;-74
2024/02/27 01:51:14;;;;;;;44.30;14.00;;;;;;;0.12;100.00;101846.97;105684;1251;63546;-73
2024/02/27 01:53:43;;;;;;;46.10;13.90;;;;;;;0.06;100.00;101848.15;105692;1257;72951;-73
2024/02/27 01:56:11;;;;;;;33.10;11.90;;;;;;;0.01;100.00;101850.04;105989;1254;60874;-73
2024/02/27 01:58:38;;;;;;;25.80;10.50;;;;;;;-0.01;100.00;101852.79;105732;1254;60011;-73
2024/02/27 02:01:07;;;;;;;40.30;12.00;;;;;;;-0.03;100.00;101856.73;105740;1257;73184;-73
2024/02/27 02:03:37;;;;;;;27.40;11.30;;;;;;;-0.05;100.00;101855.69;105805;1260;63688;-73
2024/02/27 02:06:06;;;;;;;33.40;12.20;;;;;;;-0.03;100.00;101859.83;105804;1257;72500;-73
2024/02/27 02:08:34;;;;;;;45.50;12.80;;;;;;;-0.01;100.00;101856.04;105752;1254;59638;-74
2024/02/27 02:11:01;;;;;;;38.60;13.00;;;;;;;0.02;100.00;101855.88;105720;1254;59730;-75
2024/02/27 02:13:29;;;;;;;22.00;9.20;;;;;;;0.04;100.00;101861.22;105727;1254;73090;-75
2024/02/27 02:15:56;;;;;;;33.70;10.70;;;;;;;0.06;100.00;101863.29;105789;1259;63720;-73
2024/02/27 02:18:24;;;;;;;33.90;11.60;;;;;;;0.06;100.00;101868.95;105710;1254;71437;-73
2024/02/27 02:20:52;;;;;;;25.70;10.90;;;;;;;0.03;100.00;101868.95;105753;1254;59723;-73
2024/02/27 02:23:20;;;;;;;31.30;9.40;;;;;;;0.01;100.00;101868.08;105703;1256;60069;-74
2024/02/27 02:25:48;;;;;;;33.00;12.30;;;;;;;-0.01;100.00;101872.89;105686;1255;73198;-73
2024/02/27 02:28:15;;;;;;;27.30;11.20;;;;;;;0.00;100.00;101872.04;105844;1254;62263;-72
2024/02/27 02:30:43;;;;;;;35.70;10.50;;;;;;;-0.01;100.00;101873.75;105700;1252;72690;-74
2024/02/27 02:33:11;;;;;;;27.30;9.90;;;;;;;-0.03;100.00;101875.63;105772;1257;59615;-73
2024/02/27 02:35:43;;;;;;;28.00;11.10;;;;;;;-0.04;100.00;101874.27;105740;1253;60137;-74
2024/02/27 02:38:14;;;;;;;22.70;9.40;;;;;;;-0.06;100.00;101882.33;105691;1254;71848;-74
2024/02/27 02:40:41;;;;;;;23.10;10.00;;;;;;;-0.07;100.00;101879.58;105736;1254;62845;-75
2024/02/27 02:43:09;;;;;;;36.40;10.60;;;;;;;-0.09;100.00;101877.16;105598;1258;71363;-75
2024/02/27 02:45:37;;;;;;;26.30;8.50;;;;;;;-0.10;100.00;101875.61;105698;1253;60492;-75
2024/02/27 02:48:05;;;;;;;25.50;8.40;;;;;;;-0.12;100.00;101873.53;105792;1254;60536;-74
2024/02/27 02:50:33;;;;;;;20.50;9.50;;;;;;;-0.13;100.00;101873.02;105699;1252;73918;-73
2024/02/27 02:53:00;;;;;;;34.30;8.80;;;;;;;-0.08;100.00;101873.02;105670;1253;62264;-73
2024/02/27 02:55:28;;;;;;;20.60;7.10;;;;;;;-0.07;100.00;101877.34;105706;1257;72608;-74
2024/02/27 02:57:55;;;;;;;37.90;9.90;;;;;;;-0.11;100.00;101876.12;105681;1257;60546;-76
2024/02/27 03:00:23;;;;;;;29.20;10.20;;;;;;;-0.15;100.00;101880.05;105694;1252;61951;-71
2024/02/27 03:02:50;;;;;;;28.80;11.40;;;;;;;-0.21;100.00;101882.78;105723;1254;71644;-74
2024/02/27 03:05:17;;;;;;;29.70;10.10;;;;;;;-0.26;100.00;101881.20;105878;1254;64352;-73
2024/02/27 03:07:45;;;;;;;32.80;11.00;;;;;;;-0.32;100.00;101877.22;105692;1267;71744;-71
2024/02/27 03:10:13;;;;;;;34.30;10.60;;;;;;;-0.36;100.00;101876.16;105707;1254;60609;-73
2024/02/27 03:12:42;;;;;;;20.00;9.90;;;;;;;-0.38;100.00;101875.30;105799;1254;60452;-75
2024/02/27 03:15:10;;;;;;;26.00;11.10;;;;;;;-0.40;100.00;101881.14;105809;1257;73838;-73
2024/02/27 03:17:37;;;;;;;28.50;10.20;;;;;;;-0.43;100.00;101876.13;105687;1257;62730;-73
2024/02/27 03:20:05;;;;;;;28.40;10.00;;;;;;;-0.44;100.00;101876.13;105647;1254;72694;-73
2024/02/27 03:22:34;;;;;;;24.50;9.50;;;;;;;-0.43;100.00;101868.92;105767;1254;60619;-73
2024/02/27 03:25:05;;;;;;;22.90;9.20;;;;;;;-0.44;100.00;101863.75;105704;1253;60600;-73
2024/02/27 03:27:33;;;;;;;31.40;11.30;;;;;;;-0.45;100.00;101866.33;105806;1257;72260;-73
2024/02/27 03:30:01;;;;;;;25.70;11.70;;;;;;;-0.43;100.00;101869.08;105814;1252;61739;-73
2024/02/27 03:32:29;;;;;;;18.60;9.30;;;;;;;-0.42;100.00;101873.04;105753;1257;71562;-72
2024/02/27 03:34:57;;;;;;;33.10;10.90;;;;;;;-0.45;100.00;101872.85;105792;1256;60440;-72
2024/02/27 03:37:26;;;;;;;27.00;12.20;;;;;;;-0.50;100.00;101871.10;105786;1257;60412;-74
2024/02/27 03:39:53;;;;;;;38.50;11.60;;;;;;;-0.53;100.00;101869.37;105737;1251;72660;-73
2024/02/27 03:42:21;;;;;;;23.80;11.20;;;;;;;-0.56;100.00;101871.23;105734;1251;63579;-74
2024/02/27 03:44:49;;;;;;;27.60;13.40;;;;;;;-0.61;100.00;101867.25;105752;1257;70438;-72
2024/02/27 03:47:16;;;;;;;33.00;11.10;;;;;;;-0.60;100.00;101869.85;105709;1251;60497;-74
2024/02/27 03:49:44;;;;;;;37.30;11.80;;;;;;;-0.60;100.00;101869.67;105641;1251;60466;-73
2024/02/27 03:52:11;;;;;;;28.40;10.20;;;;;;;-0.59;100.00;101868.13;105782;1257;71917;-72
2024/02/27 03:54:39;;;;;;;40.10;12.60;;;;;;;-0.58;100.00;101866.05;105760;1251;62955;-73
2024/02/27 03:57:09;;;;;;;25.20;10.30;;;;;;;-0.56;100.00;101872.28;105728;1254;71474;-74
2024/02/27 03:59:39;;;;;;;31.10;11.10;;;;;;;-0.53;100.00;101876.59;105685;1253;60437;-72
2024/02/27 04:02:07;;;;;;;29.50;13.10;;;;;;;-0.53;100.00;101873.48;105708;1258;60425;-72
2024/02/27 04:04:34;;;;;;;21.80;10.30;;;;;;;-0.58;100.00;101876.90;105660;1257;73777;-72
2024/02/27 04:07:02;;;;;;;34.20;13.30;;;;;;;-0.62;100.00;101883.05;105790;1254;63691;-72
2024/02/27 04:09:30;;;;;;;24.80;12.40;;;;;;;-0.70;100.00;101885.58;105740;1257;72249;-75
2024/02/27 04:11:57;;;;;;;39.50;14.00;;;;;;;-0.76;100.00;101888.79;105705;1253;60600;-74
2024/02/27 04:14:26;;;;;;;40.40;12.90;;;;;;;-0.82;100.00;101890.46;105784;1251;60510;-74
2024/02/27 04:16:53;;;;;;;37.60;13.20;;;;;;;-0.85;100.00;101889.41;105737;1257;76880;-74
2024/02/27 04:19:21;;;;;;;31.40;13.50;;;;;;;-0.86;100.00;101897.99;105824;1253;62600;-73
2024/02/27 04:21:49;;;;;;;36.10;14.30;;;;;;;-0.87;100.00;101900.89;105783;1257;73168;-74
2024/02/27 04:24:17;;;;;;;29.10;13.40;;;;;;;-0.90;100.00;101901.91;105815;1254;60950;-75
2024/02/27 04:26:44;;;;;;;31.00;12.30;;;;;;;-0.91;100.00;101902.25;105798;1257;60432;-75
2024/02/27 04:29:12;;;;;;;28.30;13.50;;;;;;;-0.90;100.00;101904.83;105726;1253;73931;-73
2024/02/27 04:31:44;;;;;;;44.50;16.70;;;;;;;-0.89;100.00;101902.09;105716;1257;64412;-75
2024/02/27 04:34:11;;;;;;;43.10;19.10;;;;;;;-0.86;100.00;101902.80;105776;1257;72660;-75
2024/02/27 04:36:44;;;;;;;49.30;19.40;;;;;;;-0.84;100.00;101904.70;105839;1257;61443;-72
2024/02/27 04:39:13;;;;;;;49.40;20.20;;;;;;;-0.85;100.00;101910.35;105820;1257;60408;-77
2024/02/27 04:41:42;;;;;;;46.10;20.40;;;;;;;-0.90;100.00;101908.09;105789;1252;73850;-75
2024/02/27 04:44:11;;;;;;;53.10;18.70;;;;;;;-0.92;100.00;101915.10;105954;1257;63750;-73
2024/02/27 04:46:39;;;;;;;43.90;19.70;;;;;;;-0.94;100.00;101913.55;105737;1253;72705;-73
2024/02/27 04:49:06;;;;;;;40.70;16.10;;;;;;;-0.93;100.00;101916.65;105793;1254;60862;-74
2024/02/27 04:51:34;;;;;;;32.70;16.80;;;;;;;-0.93;100.00;101917.52;105786;1253;60530;-74
2024/02/27 04:54:03;;;;;;;33.90;15.20;;;;;;;-0.92;100.00;101922.84;105788;1254;72640;-73
2024/02/27 04:56:30;;;;;;;39.80;15.50;;;;;;;-0.90;100.00;101915.64;105708;1257;63987;-73
2024/02/27 04:58:57;;;;;;;34.10;16.90;;;;;;;-0.86;100.00;101917.89;105763;1254;72643;-74
2024/02/27 05:01:26;;;;;;;31.80;15.20;;;;;;;-0.81;100.00;101920.17;105687;1251;60596;-75
2024/02/27 05:03:53;;;;;;;37.60;14.20;;;;;;;-0.76;100.00;101920.90;105755;1257;60689;-72
2024/02/27 05:06:21;;;;;;;40.30;15.30;;;;;;;-0.70;100.00;101925.58;105768;1253;73816;-76
2024/02/27 05:08:48;;;;;;;39.40;15.00;;;;;;;-0.63;100.00;101925.98;105780;1252;62265;-73
2024/02/27 05:11:16;;;;;;;42.10;17.00;;;;;;;-0.57;100.00;101930.32;105831;1257;72607;-77
2024/02/27 05:13:44;;;;;;;35.30;15.00;;;;;;;-0.54;100.00;101930.67;105707;1257;60530;-75
2024/02/27 05:16:11;;;;;;;43.60;17.10;;;;;;;-0.53;100.00;101936.88;105748;1251;60437;-74
2024/02/27 05:18:39;;;;;;;42.60;16.20;;;;;;;-0.53;100.00;101944.44;105827;1253;73851;-75
2024/02/27 05:21:06;;;;;;;32.80;12.60;;;;;;;-0.47;100.00;101946.88;105683;1257;63871;-72
2024/02/27 05:23:35;;;;;;;31.80;13.70;;;;;;;-0.42;100.00;101945.54;105730;1254;71047;-74
2024/02/27 05:26:03;;;;;;;32.60;13.40;;;;;;;-0.41;100.00;101945.89;105805;1253;60517;-74
2024/02/27 05:28:32;;;;;;;34.40;11.60;;;;;;;-0.39;100.00;101946.25;105812;1252;60625;-73
2024/02/27 05:31:01;;;;;;;24.30;9.10;;;;;;;-0.33;100.00;101948.34;105745;1251;72822;-75
2024/02/27 05:33:29;;;;;;;23.50;11.50;;;;;;;-0.21;100.00;101950.31;105794;1251;63863;-75
2024/02/27 05:35:57;;;;;;;27.30;11.90;;;;;;;-0.02;100.00;101948.18;105781;1254;72699;-74
2024/02/27 05:38:25;;;;;;;33.10;15.50;;;;;;;0.26;100.00;101951.75;105821;1254;60466;-75
2024/02/27 05:40:52;;;;;;;23.20;10.80;;;;;;;0.55;100.00;101953.23;105767;1257;60430;-76
2024/02/27 05:43:19;;;;;;;28.20;11.50;;;;;;;0.84;100.00;101956.90;105789;1257;73970;-75
2024/02/27 05:45:47;;;;;;;29.90;11.70;;;;;;;1.04;100.00;101957.28;105782;1257;63710;-74
2024/02/27 05:48:14;;;;;;;34.20;13.10;;;;;;;1.19;100.00;101951.95;105772;1254;71479;-74
2024/02/27 05:50:42;;;;;;;30.10;11.60;;;;;;;1.31;100.00;101954.71;105761;1257;60457;-75
2024/02/27 05:53:10;;;;;;;27.70;10.40;;;;;;;1.42;100.00;101955.05;105638;1254;60527;-75
2024/02/27 05:55:37;;;;;;;29.30;12.30;;;;;;;1.56;100.00;101956.77;105705;1252;73986;-76
2024/02/27 05:58:05;;;;;;;30.70;13.90;;;;;;;1.71;100.00;101958.13;105710;1251;62430;-74
2024/02/27 06:00:33;;;;;;;27.60;14.40;;;;;;;1.92;100.00;101964.96;105680;1254;71344;-74
2024/02/27 06:03:01;;;;;;;25.30;11.90;;;;;;;2.16;100.00;101963.18;105728;1254;60452;-74
2024/02/27 06:05:29;;;;;;;28.50;13.20;;;;;;;2.44;100.00;101963.95;106039;1257;60444;-74
2024/02/27 06:07:57;;;;;;;37.60;10.90;;;;;;;2.77;100.00;101970.67;106045;1251;72659;-74
2024/02/27 06:10:24;;;;;;;25.00;9.10;;;;;;;3.14;100.00;101969.03;105681;1254;61856;-74
2024/02/27 06:12:52;;;;;;;25.90;9.50;;;;;;;3.46;100.00;101976.05;105681;1257;71534;-73
2024/02/27 06:15:20;;;;;;;27.50;10.70;;;;;;;3.74;100.00;101977.17;105748;1254;60553;-74
2024/02/27 06:17:49;;;;;;;26.90;12.20;;;;;;;3.97;100.00;101974.87;105811;1253;60446;-75
2024/02/27 06:23:02;;;;;;;26.20;12.10;;;;;;;4.76;92.55;101969.91;105731;1253;64288;-73
2024/02/27 06:25:30;;;;;;;26.10;13.30;;;;;;;5.15;84.73;101965.69;105649;1257;70742;-74
2024/02/27 06:27:58;;;;;;;25.70;12.20;;;;;;;5.50;80.30;101964.77;105739;1253;60539;-73
2024/02/27 06:30:25;;;;;;;26.00;12.00;;;;;;;5.80;71.90;101968.40;105710;1253;60453;-74
2024/02/27 06:32:53;;;;;;;23.10;10.80;;;;;;;5.94;69.49;101964.17;105678;1252;72551;-76
2024/02/27 06:35:21;;;;;;;26.80;10.60;;;;;;;6.01;65.63;101965.96;105823;1253;66031;-74
2024/02/27 06:37:50;;;;;;;27.00;12.00;;;;;;;5.98;65.75;101965.33;105937;1257;73335;-74
2024/02/27 06:40:17;;;;;;;23.00;10.00;;;;;;;6.11;65.34;101966.46;105722;1251;60424;-76
2024/02/27 06:42:45;;;;;;;27.80;11.90;;;;;;;6.33;63.87;101971.58;105673;1252;63473;-74
2024/02/27 06:45:15;;;;;;;35.30;13.50;;;;;;;6.46;61.67;101970.95;105903;1253;72957;-74
2024/02/27 06:47:42;;;;;;;28.30;12.20;;;;;;;6.59;61.74;101976.41;105772;1254;62441;-75
2024/02/27 06:50:10;;;;;;;26.90;12.60;;;;;;;6.66;59.89;101973.65;105761;1254;71451;-76
2024/02/27 06:52:41;;;;;;;23.80;11.80;;;;;;;6.42;59.74;101969.46;105812;1257;60536;-74
2024/02/27 06:55:09;;;;;;;26.90;13.50;;;;;;;6.08;61.07;101974.14;105766;1257;60438;-74
2024/02/27 06:57:36;;;;;;;27.00;14.40;;;;;;;5.66;62.94;101975.95;105668;1257;72802;-75
2024/02/27 07:00:05;;;;;;;30.10;15.40;;;;;;;5.23;65.96;101977.52;105862;1254;63593;-75
2024/02/27 07:02:33;;;;;;;31.50;12.60;;;;;;;4.89;69.36;101978.20;105839;1258;72434;-75
2024/02/27 07:05:01;;;;;;;31.40;12.70;;;;;;;4.59;71.80;101975.16;105768;1253;60485;-75
2024/02/27 07:07:29;;;;;;;22.20;11.00;;;;;;;4.27;75.12;101976.08;105766;1251;60612;-74
2024/02/27 07:09:58;;;;;;;24.00;11.70;;;;;;;4.01;78.76;101976.39;105771;1254;73527;-76
2024/02/27 07:12:27;;;;;;;29.20;11.20;;;;;;;3.79;82.79;101972.79;105781;1257;63896;-72
2024/02/27 07:14:55;;;;;;;28.20;10.80;;;;;;;3.61;85.39;101973.15;105804;1257;71048;-75
2024/02/27 07:17:23;;;;;;;19.60;9.50;;;;;;;3.38;89.08;101967.64;105773;1254;60543;-73
2024/02/27 07:19:51;;;;;;;21.10;10.60;;;;;;;3.23;92.64;101969.67;105719;1257;60485;-75
2024/02/27 07:22:18;;;;;;;22.60;11.00;;;;;;;3.12;95.34;101972.70;105654;1252;76055;-75
2024/02/27 07:24:47;;;;;;;19.80;10.60;;;;;;;3.04;97.52;101972.73;105714;1251;63849;-75
2024/02/27 07:27:14;;;;;;;24.20;9.60;;;;;;;2.96;99.33;101972.10;105722;1254;71499;-74
2024/02/27 07:29:42;;;;;;;22.20;10.00;;;;;;;2.95;100.00;101971.58;105655;1253;60628;-75
2024/02/27 07:32:10;;;;;;;19.80;9.30;;;;;;;2.96;100.00;101970.72;105676;1259;60743;-75
2024/02/27 07:34:38;;;;;;;19.80;9.20;;;;;;;2.96;100.00;101966.05;105787;1257;73270;-76
2024/02/27 07:37:06;;;;;;;20.00;11.00;;;;;;;2.98;100.00;101965.35;105681;1257;63721;-73
2024/02/27 07:39:34;;;;;;;29.60;11.00;;;;;;;3.02;100.00;101963.42;105860;1254;71357;-74
2024/02/27 07:42:02;;;;;;;20.10;10.30;;;;;;;3.03;100.00;101960.48;105726;1253;60360;-76
2024/02/27 07:44:30;;;;;;;20.60;9.20;;;;;;;3.09;100.00;101961.82;105775;1257;60475;-74
2024/02/27 07:46:58;;;;;;;24.50;9.70;;;;;;;3.13;100.00;101960.76;105723;1257;73430;-74
2024/02/27 07:49:27;;;;;;;24.90;10.20;;;;;;;3.22;100.00;101962.92;105744;1252;62332;-74
2024/02/27 07:51:54;;;;;;;22.00;11.50;;;;;;;3.38;100.00;101964.20;105775;1258;72677;-75
2024/02/27 07:54:22;;;;;;;27.20;12.80;;;;;;;3.67;100.00;101964.79;105698;1251;61064;-74
2024/02/27 07:56:50;;;;;;;24.50;11.30;;;;;;;4.19;96.90;101967.18;105710;1251;60507;-74
2024/02/27 07:59:17;;;;;;;20.60;9.60;;;;;;;4.85;90.86;101973.76;105721;1257;72784;-72
2024/02/27 08:01:51;;;;;;;21.70;9.70;;;;;;;5.59;79.67;101970.69;106015;1251;63229;-74
2024/02/27 08:04:20;;;;;;;18.30;9.40;;;;;;;6.26;69.24;101973.27;106285;1257;75514;-75
2024/02/27 08:06:48;;;;;;;25.20;10.00;;;;;;;6.79;63.04;101976.15;105782;1254;60518;-74
2024/02/27 08:09:16;;;;;;;22.50;9.80;;;;;;;7.24;59.46;101978.23;105759;1251;61245;-75
2024/02/27 08:11:44;;;;;;;20.60;9.00;;;;;;;7.66;57.82;101975.81;105787;1254;75525;-74
2024/02/27 08:14:12;;;;;;;25.10;9.60;;;;;;;8.12;55.40;101972.98;106009;1251;63434;-76
2024/02/27 08:16:39;;;;;;;23.30;11.00;;;;;;;8.57;53.17;101977.98;106188;1252;73783;-72
2024/02/27 08:19:07;;;;;;;23.50;12.30;;;;;;;9.04;51.44;101979.02;106001;1254;60421;-77
2024/02/27 08:21:35;;;;;;;22.70;11.30;;;;;;;9.51;49.35;101976.61;105752;1251;60510;-73
2024/02/27 08:24:02;;;;;;;22.90;11.40;;;;;;;9.88;47.48;101975.70;105745;1251;71853;-76
2024/02/27 08:26:30;;;;;;;21.10;9.40;;;;;;;10.14;46.59;101972.99;105793;1257;65260;-74
2024/02/27 08:28:57;;;;;;;25.50;11.20;;;;;;;10.46;45.56;101968.71;105699;1257;73284;-76
2024/02/27 08:31:25;;;;;;;29.50;13.70;;;;;;;10.77;44.60;101967.49;105740;1257;60453;-75
2024/02/27 08:33:54;;;;;;;17.40;10.00;;;;;;;11.08;43.21;101962.62;105770;1253;60469;-77
2024/02/27 08:36:25;;;;;;;18.20;8.60;;;;;;;11.25;41.83;101964.04;105765;1254;74826;-77
2024/02/27 08:38:54;;;;;;;19.80;10.00;;;;;;;11.22;41.78;101959.42;105834;1254;62507;-75
2024/02/27 08:41:21;;;;;;;25.20;9.90;;;;;;;11.41;41.99;101954.77;105762;1257;73600;-77
2024/02/27 08:43:49;;;;;;;19.30;8.70;;;;;;;11.66;41.04;101950.02;105706;1254;60463;-74
2024/02/27 08:46:20;;;;;;;15.50;7.90;;;;;;;11.80;40.40;101950.32;105863;1256;60694;-76
2024/02/27 08:48:49;;;;;;;23.50;9.00;;;;;;;11.92;39.83;101948.21;105719;1253;74261;-74
2024/02/27 08:51:18;;;;;;;17.80;9.80;;;;;;;12.06;39.74;101953.73;105780;1257;63726;-74
2024/02/27 08:53:47;;;;;;;20.80;9.70;;;;;;;12.18;39.33;101949.70;105821;1254;71975;-73
2024/02/27 08:56:14;;;;;;;15.30;8.00;;;;;;;12.36;39.20;101951.16;105688;1258;61181;-75
2024/02/27 08:58:42;;;;;;;20.70;9.50;;;;;;;12.48;38.56;101953.27;105753;1251;60532;-75
2024/02/27 09:01:10;;;;;;;20.70;10.90;;;;;;;12.55;38.62;101947.47;105651;1252;74250;-74
2024/02/27 09:03:40;;;;;;;27.20;15.10;;;;;;;12.61;38.51;101948.05;105806;1254;64441;-74
2024/02/27 09:06:11;;;;;;;23.30;14.10;;;;;;;12.76;38.12;101945.08;105763;1254;71333;-73
2024/02/27 09:08:39;;;;;;;25.90;13.90;;;;;;;12.83;37.98;101941.40;105742;1257;60514;-73
2024/02/27 09:11:07;;;;;;;21.80;11.20;;;;;;;12.86;37.57;101940.71;105728;1254;60450;-74
2024/02/27 09:13:35;;;;;;;16.80;9.20;;;;;;;12.97;37.07;101946.02;105687;1257;75065;-74
2024/02/27 09:16:05;;;;;;;30.20;14.70;;;;;;;13.02;37.16;101940.84;105749;1257;63432;-76
2024/02/27 09:18:32;;;;;;;26.60;13.40;;;;;;;13.09;36.73;101949.27;105648;1254;72831;-74
2024/02/27 09:21:01;;;;;;;20.70;10.00;;;;;;;13.08;37.02;101943.53;105741;1258;60585;-75
2024/02/27 09:23:28;;;;;;;15.40;8.70;;;;;;;13.12;37.00;101943.86;105701;1257;60422;-74
2024/02/27 09:25:56;;;;;;;18.40;10.10;;;;;;;13.29;36.57;101940.76;105792;1257;74347;-74
2024/02/27 09:28:23;;;;;;;19.90;9.90;;;;;;;13.39;36.02;101938.67;105698;1258;64001;-73
2024/02/27 09:30:51;;;;;;;22.70;10.20;;;;;;;13.35;36.38;101930.81;105783;1254;71899;-76
2024/02/27 09:33:18;;;;;;;23.10;9.80;;;;;;;13.39;36.71;101931.61;105783;1257;60638;-73
2024/02/27 09:35:46;;;;;;;14.10;8.30;;;;;;;13.56;36.44;101929.53;105839;1252;60524;-75
2024/02/27 09:38:15;;;;;;;18.30;9.20;;;;;;;13.62;36.28;101927.65;105780;1254;76671;-74
2024/02/27 09:40:42;;;;;;;22.30;9.70;;;;;;;13.64;36.26;101921.38;105905;1254;63458;-76
2024/02/27 09:43:21;;;;;;;25.70;10.20;;;;;;;13.77;36.16;101919.83;105754;1254;72297;-78
2024/02/27 09:45:49;;;;;;;17.40;10.10;;;;;;;13.99;35.98;101914.83;105771;1256;62169;-73
2024/02/27 09:48:18;;;;;;;21.30;8.70;;;;;;;14.15;36.02;101918.02;105755;1254;60953;-75
2024/02/27 09:50:47;;;;;;;23.80;9.00;;;;;;;14.34;35.68;101910.63;105881;1254;75909;-75
2024/02/27 09:53:14;;;;;;;27.20;12.90;;;;;;;14.53;34.68;101916.65;105691;1257;64109;-76
2024/02/27 09:55:42;;;;;;;20.00;9.70;;;;;;;14.48;34.58;101906.16;105688;1259;72026;-74
2024/02/27 10:10:55;;;;;;;24.70;9.80;;;;;;;14.67;33.33;101917.80;102698;1293;601138;-73
2024/02/27 10:13:23;;;;;;;20.40;9.50;;;;;;;14.58;33.75;101919.02;104913;1270;60402;-75
2024/02/27 10:15:50;;;;;;;22.30;9.70;;;;;;;14.72;33.79;101911.20;105000;1264;61349;-77
2024/02/27 10:18:18;;;;;;;12.10;7.60;;;;;;;14.99;33.79;101913.32;105083;1264;72328;-73
2024/02/27 10:20:46;;;;;;;17.60;7.50;;;;;;;15.23;33.46;101906.65;104974;1264;62355;-73
2024/02/27 10:23:16;;;;;;;14.30;7.00;;;;;;;15.34;33.27;101906.70;104714;1269;75269;-73
2024/02/27 10:25:45;;;;;;;31.00;12.90;;;;;;;15.30;33.32;101904.96;104897;1262;237441;-75
2024/02/27 10:28:13;;;;;;;15.40;9.10;;;;;;;15.23;33.18;101901.70;105564;1260;60622;-74
2024/02/27 10:30:40;;;;;;;14.90;7.00;;;;;;;15.35;33.33;101896.60;105391;1257;72560;-75
2024/02/27 10:33:11;;;;;;;15.60;7.30;;;;;;;15.63;33.38;101899.14;105867;1257;63027;-75
2024/02/27 10:35:42;;;;;;;18.60;8.80;;;;;;;15.93;32.66;101901.76;106775;1261;74523;-75
2024/02/27 10:38:15;;;;;;;16.80;8.50;;;;;;;16.04;32.30;101899.48;106786;1256;59651;-76
2024/02/27 10:40:43;;;;;;;17.90;9.40;;;;;;;16.08;32.09;101892.36;107513;1254;61094;-74
2024/02/27 10:43:11;;;;;;;17.30;8.30;;;;;;;16.10;32.42;101889.95;108447;1254;72245;-74
2024/02/27 10:45:39;;;;;;;18.80;7.30;;;;;;;16.21;32.24;101892.41;108695;1254;64530;-75
2024/02/27 10:48:08;;;;;;;17.10;8.30;;;;;;;16.32;31.95;101892.24;107485;1260;71409;-74
2024/02/27 10:53:29;;;;;;;12.90;6.90;;;;;;;16.34;31.92;101891.42;102696;1294;600382;-73
2024/02/27 10:55:56;;;;;;;11.10;6.50;;;;;;;16.41;31.15;101892.39;104732;1266;59587;-74
2024/02/27 10:58:24;;;;;;;13.20;5.50;;;;;;;16.48;31.46;101894.56;104878;1271;61003;-74
2024/02/27 11:00:51;;;;;;;14.90;6.60;;;;;;;16.58;31.07;101890.23;104948;1266;72797;-76
2024/02/27 11:03:19;;;;;;;14.40;6.20;;;;;;;16.67;31.06;101895.46;104918;1266;64592;-76
2024/02/27 11:05:47;;;;;;;18.00;7.10;;;;;;;16.61;30.65;101895.84;104737;1266;73081;-75
2024/02/27 11:08:14;;;;;;;10.20;6.30;;;;;;;16.46;31.02;101890.48;104704;1267;298045;-76
2024/02/27 11:10:42;;;;;;;15.10;7.20;;;;;;;16.51;30.93;101887.13;104921;1264;61192;-76
2024/02/27 11:13:09;;;;;;;14.30;6.60;;;;;;;16.60;30.91;101890.31;104891;1266;72007;-75
2024/02/27 11:15:38;;;;;;;12.90;7.30;;;;;;;16.67;31.05;101887.17;104931;1269;64026;-76
2024/02/27 11:18:06;;;;;;;19.70;12.20;;;;;;;16.77;30.92;101889.17;104908;1266;72486;-74
2024/02/27 11:20:34;;;;;;;19.20;9.50;;;;;;;16.80;30.49;101889.17;105102;1266;59680;-75
2024/02/27 11:23:03;;;;;;;13.90;7.80;;;;;;;16.65;30.25;101890.65;104947;1270;59842;-75